Time;durP1;ratioP1;P1;durP2;ratioP2;P2;SDS_P1;SDS_P2;PMS_P1;PMS_P2;Temp;Humidity;BMP_temperature;BMP_pressure;BME280_temperature;BME280_humidity;BME280_pressure;Samples;Min_cycle;Max_cycle;Signal;HPM_P1;HPM_P2
2023/11/12 00:01:56;;;;;;;1.40;1.20;;;;;;;8.45;67.66;98723.78;6168268;23;20001;-94
2023/11/12 00:04:22;;;;;;;1.90;1.20;;;;;;;8.48;67.32;98731.28;6170789;23;20423;-94
2023/11/12 00:06:48;;;;;;;1.88;1.25;;;;;;;8.61;66.90;98748.72;6171496;23;20003;-93
2023/11/12 00:09:14;;;;;;;1.77;1.30;;;;;;;8.51;67.27;98735.31;6170741;23;20004;-93
2023/11/12 00:11:42;;;;;;;1.73;1.10;;;;;;;8.68;66.77;98754.59;6171213;23;20005;-93
2023/11/12 00:14:09;;;;;;;2.08;1.10;;;;;;;8.58;65.38;98729.66;6169459;23;20004;-93
2023/11/12 00:16:35;;;;;;;2.17;1.23;;;;;;;8.66;65.14;98731.81;6171326;23;20526;-93
2023/11/12 00:19:04;;;;;;;1.85;1.10;;;;;;;8.68;65.57;98745.75;6170540;23;20004;-91
2023/11/12 00:21:29;;;;;;;2.28;1.00;;;;;;;8.81;65.22;98757.81;6147917;23;20436;-92
2023/11/12 00:23:58;;;;;;;1.25;0.90;;;;;;;8.69;64.33;98753.53;6145827;23;20067;-94
2023/11/12 00:26:24;;;;;;;1.65;1.00;;;;;;;8.63;63.25;98754.63;6170367;23;20071;-94
2023/11/12 00:28:50;;;;;;;1.10;1.00;;;;;;;8.61;64.25;98751.41;6145991;23;20016;-94
2023/11/12 00:31:17;;;;;;;1.50;1.05;;;;;;;8.70;62.51;98757.03;6170243;23;20000;-95
2023/11/12 00:33:43;;;;;;;1.42;1.10;;;;;;;8.79;63.31;98768.00;6168788;23;20008;-94
2023/11/12 00:36:09;;;;;;;1.73;1.20;;;;;;;8.70;63.78;98755.13;6169687;23;20001;-96
2023/11/12 00:38:37;;;;;;;1.50;1.10;;;;;;;8.79;63.77;98763.44;6146554;23;20043;-94
2023/11/12 00:41:03;;;;;;;1.33;0.95;;;;;;;8.81;63.59;98758.59;6170974;23;20394;-93
2023/11/12 00:43:30;;;;;;;1.60;1.10;;;;;;;8.74;63.35;98762.66;6145963;23;20035;-94
2023/11/12 00:45:59;;;;;;;1.38;0.98;;;;;;;8.68;63.03;98762.66;6145761;23;20075;-94
2023/11/12 00:48:26;;;;;;;1.58;1.20;;;;;;;8.57;64.00;98763.75;6171501;23;20399;-94
2023/11/12 00:50:52;;;;;;;1.58;1.00;;;;;;;8.68;63.14;98769.91;6146062;23;20015;-94
2023/11/12 00:53:18;;;;;;;1.58;1.08;;;;;;;8.59;63.64;98768.81;6171083;23;20067;-94
2023/11/12 00:55:44;;;;;;;1.50;1.02;;;;;;;8.45;64.12;98757.88;6146292;23;20039;-95
2023/11/12 00:58:09;;;;;;;1.10;1.00;;;;;;;8.47;63.99;98755.72;6146099;23;20015;-94
2023/11/12 01:00:35;;;;;;;2.05;1.10;;;;;;;8.47;64.04;98755.72;6147354;23;20004;-93
2023/11/12 01:03:02;;;;;;;1.92;1.08;;;;;;;8.45;63.88;98747.13;6146974;23;19992;-93
2023/11/12 01:05:29;;;;;;;2.67;1.40;;;;;;;8.54;64.51;98766.16;6147626;23;19996;-94
2023/11/12 01:07:57;;;;;;;1.42;1.20;;;;;;;8.46;63.73;98765.63;6148275;23;20419;-94
2023/11/12 01:10:25;;;;;;;3.60;1.05;;;;;;;8.49;63.76;98759.72;6197326;23;20000;-94
2023/11/12 01:12:52;;;;;;;1.65;1.10;;;;;;;8.58;63.65;98773.41;6170718;23;20396;-93
2023/11/12 01:15:18;;;;;;;1.80;1.10;;;;;;;8.54;63.50;98766.97;6170221;23;20001;-95
2023/11/12 01:17:45;;;;;;;1.88;1.20;;;;;;;8.57;63.56;98777.16;6171462;23;20088;-94
2023/11/12 01:20:12;;;;;;;3.50;1.00;;;;;;;8.32;64.36;98748.44;6172463;23;20000;-94
2023/11/12 01:22:38;;;;;;;1.92;1.10;;;;;;;8.32;64.89;98758.34;6146229;23;20008;-93
2023/11/12 01:25:05;;;;;;;2.58;1.05;;;;;;;8.31;65.43;98765.59;6146999;23;20071;-94
2023/11/12 01:27:31;;;;;;;2.53;1.15;;;;;;;8.35;64.52;98779.28;6171887;23;20001;-95
2023/11/12 01:29:58;;;;;;;2.28;1.20;;;;;;;8.20;65.25;98761.31;6171849;23;20001;-95
2023/11/12 01:32:26;;;;;;;3.20;1.40;;;;;;;7.99;65.65;98744.41;6170192;23;20012;-94
2023/11/12 01:34:53;;;;;;;1.33;1.13;;;;;;;7.97;65.95;98750.03;6170154;23;20032;-94
2023/11/12 01:37:20;;;;;;;3.88;1.33;;;;;;;8.14;66.07;98790.00;6170773;23;20488;-95
2023/11/12 01:39:47;;;;;;;1.45;1.17;;;;;;;7.99;66.03;98769.34;6169681;23;19997;-94
2023/11/12 01:42:14;;;;;;;2.25;1.42;;;;;;;8.01;65.85;98775.25;6193424;23;20001;-95
2023/11/12 01:44:39;;;;;;;3.28;1.58;;;;;;;7.97;66.36;98776.84;6170403;23;20013;-95
2023/11/12 01:47:05;;;;;;;1.35;1.20;;;;;;;7.87;66.40;98763.44;6219903;23;20081;-94
2023/11/12 01:49:35;;;;;;;6.65;1.25;;;;;;;7.84;66.16;98764.78;6146362;23;20052;-96
2023/11/12 01:52:01;;;;;;;1.42;1.17;;;;;;;7.83;66.99;98773.06;6145636;23;20009;-94
2023/11/12 01:54:27;;;;;;;2.20;1.48;;;;;;;7.79;66.66;98777.34;6145093;23;20003;-93
2023/11/12 01:56:55;;;;;;;1.70;1.20;;;;;;;7.73;66.94;98768.50;6170552;23;20008;-95
2023/11/12 01:59:24;;;;;;;2.00;1.60;;;;;;;7.76;66.96;98786.72;6145688;23;20004;-94
2023/11/12 02:01:52;;;;;;;1.92;1.30;;;;;;;7.77;66.96;98807.09;6146051;23;20004;-95
2023/11/12 02:04:18;;;;;;;2.00;1.30;;;;;;;7.67;66.34;98785.63;6170885;23;20001;-94
2023/11/12 02:06:45;;;;;;;1.88;1.33;;;;;;;7.74;66.55;98788.03;6168817;23;19997;-95
2023/11/12 02:09:12;;;;;;;1.80;1.30;;;;;;;7.73;66.42;98797.16;6146660;23;20005;-96
2023/11/12 02:11:38;;;;;;;1.88;1.20;;;;;;;7.60;66.94;98793.91;6170618;23;20066;-95
2023/11/12 02:14:06;;;;;;;1.58;1.20;;;;;;;7.53;67.09;98776.47;6169850;23;20000;-96
2023/11/12 02:16:32;;;;;;;1.95;1.23;;;;;;;7.66;66.46;98800.09;6195621;23;20020;-96
2023/11/12 02:19:00;;;;;;;2.50;1.60;;;;;;;7.53;67.05;98784.50;6146891;23;20009;-96
2023/11/12 02:21:32;;;;;;;2.10;1.05;;;;;;;7.52;66.84;98796.28;6145135;23;19996;-96
2023/11/12 02:23:59;;;;;;;8.45;1.50;;;;;;;7.48;66.97;98794.13;6193575;23;20000;-90
2023/11/12 02:26:24;;;;;;;1.98;1.40;;;;;;;7.46;67.54;98803.50;6142241;23;20079;-90
2023/11/12 02:28:50;;;;;;;4.13;1.63;;;;;;;7.45;67.78;98802.69;6143152;23;20348;-90
2023/11/12 02:31:16;;;;;;;2.13;1.33;;;;;;;7.45;67.96;98808.06;6142845;23;20015;-90
2023/11/12 02:33:43;;;;;;;2.88;1.38;;;;;;;7.28;68.14;98791.38;6166581;23;20013;-91
2023/11/12 02:36:09;;;;;;;2.15;1.42;;;;;;;7.31;67.70;98787.38;6168188;23;20007;-90
2023/11/12 02:38:36;;;;;;;2.15;1.38;;;;;;;7.32;67.63;98789.78;6191673;23;20023;-90
2023/11/12 02:41:09;;;;;;;1.95;1.38;;;;;;;7.26;67.15;98786.28;6191092;23;20027;-91
2023/11/12 02:43:35;;;;;;;2.45;1.40;;;;;;;7.29;67.50;98790.31;6146250;23;20004;-91
2023/11/12 02:46:01;;;;;;;3.13;1.58;;;;;;;7.27;67.58;98785.22;6166756;23;20394;-90
2023/11/12 02:48:35;;;;;;;3.97;1.42;;;;;;;7.29;67.38;98796.47;6142453;23;20011;-90
2023/11/12 02:51:02;;;;;;;2.17;1.30;;;;;;;7.18;67.45;98777.94;6144192;23;20000;-91
2023/11/12 02:53:28;;;;;;;2.60;2.30;;;;;;;7.17;68.45;98793.19;6168012;23;20030;-90
2023/11/12 02:55:56;;;;;;;2.30;1.70;;;;;;;7.18;68.90;98810.06;6166529;23;20000;-90
2023/11/12 02:58:21;;;;;;;2.15;1.23;;;;;;;7.08;68.44;98790.22;6167136;23;20000;-90
2023/11/12 03:00:47;;;;;;;5.63;1.60;;;;;;;6.96;69.35;98781.56;6166796;23;20008;-90
2023/11/12 03:03:13;;;;;;;2.50;1.65;;;;;;;6.84;69.01;98770.25;6167207;23;20080;-90
2023/11/12 03:05:39;;;;;;;3.10;2.00;;;;;;;7.04;69.40;98812.41;6190279;23;20008;-91
2023/11/12 03:08:06;;;;;;;3.83;1.98;;;;;;;6.98;69.81;98806.22;6142707;23;19996;-90
2023/11/12 03:10:32;;;;;;;2.75;1.77;;;;;;;6.70;70.48;98783.28;6192035;23;20000;-90
2023/11/12 03:12:59;;;;;;;5.40;2.08;;;;;;;6.78;70.05;98784.66;6143410;23;20009;-90
2023/11/12 03:15:25;;;;;;;3.10;2.10;;;;;;;6.77;70.14;98799.94;6142520;23;20004;-90
2023/11/12 03:17:53;;;;;;;3.40;1.70;;;;;;;6.82;70.30;98816.00;6191801;23;20000;-90
2023/11/12 03:20:19;;;;;;;4.47;2.10;;;;;;;6.81;70.00;98808.25;6166923;23;20000;-90
2023/11/12 03:22:46;;;;;;;2.97;1.77;;;;;;;6.71;70.12;98792.13;6192162;23;20004;-90
2023/11/12 03:25:12;;;;;;;2.42;1.65;;;;;;;6.64;70.28;98790.47;6190765;23;20070;-90
2023/11/12 03:27:38;;;;;;;2.50;1.80;;;;;;;6.73;70.38;98804.19;6166857;23;19997;-90
2023/11/12 03:30:09;;;;;;;2.40;1.55;;;;;;;6.62;70.07;98797.97;6192260;23;20039;-90
2023/11/12 03:32:34;;;;;;;2.63;1.77;;;;;;;6.55;70.81;98804.56;6192154;23;20012;-90
2023/11/12 03:35:01;;;;;;;4.38;1.90;;;;;;;6.41;71.87;98790.81;6167142;23;20340;-90
2023/11/12 03:37:27;;;;;;;2.28;1.58;;;;;;;6.28;71.89;98781.38;6191591;23;20020;-90
2023/11/12 03:39:54;;;;;;;3.40;1.98;;;;;;;6.46;72.49;98820.28;6166887;23;20028;-90
2023/11/12 03:42:21;;;;;;;4.00;2.20;;;;;;;6.41;72.37;98814.88;6191475;23;19993;-90
2023/11/12 03:44:51;;;;;;;3.83;1.75;;;;;;;6.55;72.10;98823.31;6190858;23;20008;-90
2023/11/12 03:47:18;;;;;;;2.90;1.90;;;;;;;6.51;71.66;98831.03;6167262;23;20005;-89
2023/11/12 03:49:45;;;;;;;3.30;2.08;;;;;;;6.49;71.49;98833.13;6191214;23;20064;-90
2023/11/12 03:52:11;;;;;;;1.90;1.45;;;;;;;6.38;71.86;98826.09;6217298;23;20055;-90
2023/11/12 03:54:38;;;;;;;4.03;2.00;;;;;;;6.23;72.03;98816.88;6191853;23;19996;-90
2023/11/12 03:57:04;;;;;;;4.28;1.85;;;;;;;6.21;71.61;98821.69;6218505;23;20066;-91
2023/11/12 03:59:30;;;;;;;1.95;1.40;;;;;;;6.20;71.66;98830.75;6165791;23;20435;-91
2023/11/12 04:01:57;;;;;;;2.88;1.60;;;;;;;6.30;71.21;98834.59;6142725;23;20003;-90
2023/11/12 04:04:22;;;;;;;2.28;1.48;;;;;;;6.19;70.82;98821.13;6167281;23;20123;-89
2023/11/12 04:06:51;;;;;;;2.58;2.00;;;;;;;6.39;70.91;98851.78;6165974;23;20001;-89
2023/11/12 04:09:22;;;;;;;6.07;1.75;;;;;;;6.33;71.63;98848.25;6192431;23;20446;-90
2023/11/12 04:11:47;;;;;;;4.55;2.00;;;;;;;6.20;72.28;98832.63;6166046;23;20004;-90
2023/11/12 04:14:14;;;;;;;2.58;1.90;;;;;;;6.15;72.34;98836.06;6167886;23;20011;-90
2023/11/12 04:16:40;;;;;;;2.83;2.03;;;;;;;5.99;72.33;98829.75;6191640;23;20321;-89
2023/11/12 04:19:07;;;;;;;2.63;1.80;;;;;;;5.92;72.14;98817.63;6141733;23;20004;-90
2023/11/12 04:21:34;;;;;;;2.50;1.90;;;;;;;5.99;72.81;98843.09;6167763;23;20427;-90
2023/11/12 04:24:00;;;;;;;3.80;2.30;;;;;;;5.88;73.21;98828.00;6191166;23;20028;-90
2023/11/12 04:26:25;;;;;;;3.40;2.47;;;;;;;6.10;73.49;98865.41;6166800;23;20079;-90
2023/11/12 04:28:53;;;;;;;3.85;2.33;;;;;;;5.87;73.88;98837.88;6142142;23;20427;-90
2023/11/12 04:31:18;;;;;;;3.92;2.17;;;;;;;6.12;73.87;98870.50;6166893;23;20012;-90
2023/11/12 04:33:45;;;;;;;8.00;2.50;;;;;;;6.04;73.96;98874.44;6141342;23;20005;-89
2023/11/12 04:36:12;;;;;;;2.75;1.98;;;;;;;5.97;73.95;98873.81;6166171;23;20039;-89
2023/11/12 04:38:39;;;;;;;5.07;2.15;;;;;;;5.81;73.53;98872.78;6182930;23;20021;-90
2023/11/12 04:41:04;;;;;;;2.47;1.88;;;;;;;5.69;73.48;98870.28;6216633;23;20062;-91
2023/11/12 04:43:30;;;;;;;2.47;1.88;;;;;;;5.77;73.08;98885.03;6191286;23;20004;-90
2023/11/12 04:45:57;;;;;;;3.55;2.30;;;;;;;5.74;73.53;98891.69;6190609;23;20001;-90
2023/11/12 04:48:23;;;;;;;4.10;2.63;;;;;;;5.69;74.02;98890.84;6166372;23;20447;-90
2023/11/12 04:50:50;;;;;;;4.38;2.83;;;;;;;5.66;74.33;98902.81;6192697;23;20008;-90
2023/11/12 04:53:16;;;;;;;4.47;2.35;;;;;;;5.42;73.77;98870.19;6190602;23;20009;-90
2023/11/12 04:55:43;;;;;;;3.60;2.35;;;;;;;5.39;74.33;98895.50;6191780;23;20182;-90
2023/11/12 04:58:09;;;;;;;5.43;2.50;;;;;;;5.22;73.64;98878.72;6192643;23;20448;-90
2023/11/12 05:00:35;;;;;;;3.33;2.20;;;;;;;5.23;74.16;98880.34;6167611;23;20012;-90
2023/11/12 05:03:04;;;;;;;3.60;2.35;;;;;;;5.32;74.15;98897.56;6167313;23;20467;-90
2023/11/12 05:05:32;;;;;;;3.95;2.80;;;;;;;5.31;74.42;98895.91;6192106;23;20025;-90
2023/11/12 05:07:58;;;;;;;6.55;2.00;;;;;;;5.37;74.10;98896.81;6192504;23;20004;-90
2023/11/12 05:10:24;;;;;;;5.20;2.58;;;;;;;5.29;74.51;98900.69;6192137;23;20095;-90
2023/11/12 05:12:50;;;;;;;4.45;2.70;;;;;;;5.35;74.91;98922.94;6168168;23;20440;-91
2023/11/12 05:15:17;;;;;;;5.70;2.63;;;;;;;5.19;75.03;98908.59;6167224;23;20419;-90
2023/11/12 05:17:42;;;;;;;6.13;2.80;;;;;;;5.21;74.39;98912.63;6193476;23;20301;-90
2023/11/12 05:20:08;;;;;;;6.22;2.55;;;;;;;5.12;75.06;98903.38;6167149;23;20008;-90
2023/11/12 05:22:35;;;;;;;5.88;2.60;;;;;;;5.16;74.87;98917.06;6192804;23;19999;-90
2023/11/12 05:25:01;;;;;;;8.52;2.45;;;;;;;5.12;74.34;98908.72;6217451;23;20062;-90
2023/11/12 05:27:27;;;;;;;3.92;2.45;;;;;;;5.35;74.08;98933.63;6193166;23;20001;-90
2023/11/12 05:29:53;;;;;;;3.85;2.63;;;;;;;5.40;74.77;98939.84;6167833;23;20000;-89
2023/11/12 05:32:19;;;;;;;3.95;2.75;;;;;;;5.38;74.79;98933.94;6217391;23;20000;-90
2023/11/12 05:34:48;;;;;;;5.68;2.97;;;;;;;5.36;75.09;98937.91;6166655;23;20091;-88
2023/11/12 05:37:14;;;;;;;4.10;2.55;;;;;;;5.38;75.43;98965.97;6166798;23;20009;-89
2023/11/12 05:39:41;;;;;;;6.15;3.58;;;;;;;5.39;75.22;98970.25;6167428;23;20001;-89
2023/11/12 05:42:07;;;;;;;5.70;3.83;;;;;;;5.36;75.22;98975.28;6191586;23;20008;-89
2023/11/12 05:44:34;;;;;;;5.82;3.85;;;;;;;5.39;74.97;98978.25;6142157;23;20008;-89
2023/11/12 05:47:00;;;;;;;5.95;3.10;;;;;;;5.28;75.08;98962.34;6192110;23;19996;-90
2023/11/12 05:49:26;;;;;;;5.72;3.30;;;;;;;5.41;74.65;98983.38;6167872;23;20056;-90
2023/11/12 05:51:52;;;;;;;6.32;3.22;;;;;;;5.32;74.90;98972.28;6167611;23;20001;-90
2023/11/12 05:54:18;;;;;;;3.95;2.83;;;;;;;5.38;75.38;98983.88;6166360;23;20008;-89
2023/11/12 05:56:43;;;;;;;4.50;3.10;;;;;;;5.39;74.69;98993.47;6167825;23;20004;-89
2023/11/12 05:59:09;;;;;;;5.53;3.17;;;;;;;5.44;74.20;98991.69;6143377;23;20018;-89
2023/11/12 06:01:37;;;;;;;5.65;2.90;;;;;;;5.35;73.97;98981.66;6142293;23;20347;-89
2023/11/12 06:04:04;;;;;;;5.38;3.15;;;;;;;5.44;74.75;98986.38;6168978;23;20002;-89
2023/11/12 06:06:29;;;;;;;3.70;2.63;;;;;;;5.52;74.64;98989.66;6192018;23;20039;-90
2023/11/12 06:08:56;;;;;;;5.40;3.45;;;;;;;5.69;74.10;98998.47;6193782;23;19997;-91
2023/11/12 06:11:25;;;;;;;5.00;3.17;;;;;;;5.86;73.68;99007.25;6168605;23;20005;-91
2023/11/12 06:13:52;;;;;;;6.60;3.60;;;;;;;5.87;73.50;98992.03;6169051;23;20035;-91
2023/11/12 06:16:19;;;;;;;9.40;3.80;;;;;;;6.08;73.07;99001.16;6168920;23;20412;-90
2023/11/12 06:18:44;;;;;;;6.57;2.58;;;;;;;6.10;72.79;99003.56;6192651;23;20001;-89
2023/11/12 06:21:11;;;;;;;5.03;3.58;;;;;;;6.45;71.64;99043.31;6167185;23;20028;-90
2023/11/12 06:23:43;;;;;;;4.13;2.80;;;;;;;6.63;70.68;99042.97;6190531;23;19997;-91
2023/11/12 06:26:10;;;;;;;6.70;2.92;;;;;;;6.68;70.19;99029.69;6168760;23;20000;-89
2023/11/12 06:28:36;;;;;;;5.05;3.10;;;;;;;6.73;69.80;99028.13;6164202;23;20001;-91
2023/11/12 06:31:02;;;;;;;5.32;3.60;;;;;;;6.86;69.90;99033.84;6142163;23;20058;-90
2023/11/12 06:33:28;;;;;;;5.68;3.08;;;;;;;7.07;68.71;99028.72;6141494;23;20032;-90
2023/11/12 06:35:54;;;;;;;3.90;3.03;;;;;;;7.26;68.38;99040.69;6167073;23;20001;-90
2023/11/12 06:38:21;;;;;;;5.80;3.17;;;;;;;7.50;68.31;99048.34;6191802;23;20017;-89
2023/11/12 06:40:48;;;;;;;6.85;3.40;;;;;;;7.43;67.32;99011.06;6142506;23;20039;-89
2023/11/12 06:43:15;;;;;;;7.50;3.10;;;;;;;7.67;67.25;99032.13;6167422;23;20007;-89
2023/11/12 06:45:41;;;;;;;6.53;3.08;;;;;;;7.93;66.71;99051.88;6167673;23;20005;-90
2023/11/12 06:48:10;;;;;;;5.97;3.40;;;;;;;8.04;66.00;99037.44;6168239;23;20024;-90
2023/11/12 06:50:35;;;;;;;5.03;3.13;;;;;;;8.30;65.54;99041.09;6143828;23;20004;-90
2023/11/12 06:53:03;;;;;;;8.65;3.72;;;;;;;8.36;65.14;99030.34;6165927;23;20036;-90
2023/11/12 06:55:32;;;;;;;8.95;3.08;;;;;;;8.23;66.22;99021.72;6167391;23;20004;-90
2023/11/12 06:58:01;;;;;;;5.20;3.20;;;;;;;8.27;66.09;99048.84;6167232;23;20000;-90
2023/11/12 07:00:28;;;;;;;8.25;2.90;;;;;;;8.14;66.55;99033.22;6191807;23;20019;-90
2023/11/12 07:02:54;;;;;;;5.90;2.83;;;;;;;8.12;66.25;99025.44;6165866;23;20444;-89
2023/11/12 07:05:20;;;;;;;11.02;3.58;;;;;;;8.12;66.32;99035.38;6166407;23;20075;-90
2023/11/12 07:07:46;;;;;;;10.75;4.70;;;;;;;8.23;66.26;99061.94;6142200;23;20016;-89
2023/11/12 07:10:13;;;;;;;15.38;5.05;;;;;;;8.21;66.13;99050.69;6190730;23;20087;-90
2023/11/12 07:12:38;;;;;;;11.32;5.80;;;;;;;8.23;66.35;99061.16;6165209;23;20074;-90
2023/11/12 07:15:06;;;;;;;8.25;5.35;;;;;;;8.29;66.83;99078.88;6141334;23;20000;-89
2023/11/12 07:17:33;;;;;;;10.18;5.53;;;;;;;8.37;66.28;99085.63;6167066;23;20032;-90
2023/11/12 07:19:59;;;;;;;11.70;5.80;;;;;;;8.22;66.98;99060.34;6191136;23;20007;-90
2023/11/12 07:22:25;;;;;;;22.02;13.93;;;;;;;8.34;67.04;99075.41;6166295;23;19993;-90
2023/11/12 07:24:55;;;;;;;24.52;12.45;;;;;;;8.32;66.15;99066.81;6191002;23;20003;-90
2023/11/12 07:27:21;;;;;;;20.17;9.93;;;;;;;8.49;65.71;99075.53;6192683;23;20001;-90
2023/11/12 07:29:46;;;;;;;22.17;10.75;;;;;;;8.71;65.08;99102.16;6165938;23;20006;-90
2023/11/12 07:32:12;;;;;;;20.52;9.05;;;;;;;8.65;65.09;99084.44;6166041;23;20015;-90
2023/11/12 07:34:37;;;;;;;19.08;9.50;;;;;;;8.74;64.74;99082.88;6167547;23;20009;-90
2023/11/12 07:37:04;;;;;;;19.38;10.05;;;;;;;9.03;64.29;99107.38;6142166;23;20414;-89
2023/11/12 07:39:30;;;;;;;22.00;10.52;;;;;;;9.03;64.14;99110.06;6166647;23;20007;-90
2023/11/12 07:41:56;;;;;;;22.40;9.98;;;;;;;9.07;63.45;99123.78;6165947;23;20006;-91
2023/11/12 07:44:23;;;;;;;15.57;9.60;;;;;;;9.18;63.20;99127.31;6218299;23;20027;-90
2023/11/12 07:46:49;;;;;;;18.98;9.48;;;;;;;9.20;62.79;99117.91;6191522;23;20000;-90
2023/11/12 07:49:15;;;;;;;25.50;9.55;;;;;;;9.42;62.37;99127.59;6141990;23;20024;-91
2023/11/12 07:51:41;;;;;;;29.00;9.40;;;;;;;9.47;62.23;99114.19;6166256;23;20369;-90
2023/11/12 07:54:06;;;;;;;15.30;8.55;;;;;;;9.61;61.76;99135.97;6165408;23;20087;-95
2023/11/12 07:56:34;;;;;;;16.92;8.68;;;;;;;9.64;61.71;99105.84;6143606;23;20008;-94
2023/11/12 07:59:04;;;;;;;17.92;10.45;;;;;;;9.81;61.19;99119.81;6171133;23;20005;-94
2023/11/12 08:01:30;;;;;;;14.27;8.48;;;;;;;9.68;60.83;99096.19;6223064;23;20477;-94
2023/11/12 08:03:57;;;;;;;13.63;8.07;;;;;;;9.68;61.02;99107.72;6169652;23;20024;-93
2023/11/12 08:06:26;;;;;;;18.05;8.60;;;;;;;9.76;61.19;99117.16;6169531;23;20058;-92
2023/11/12 08:08:52;;;;;;;8.45;4.57;;;;;;;9.91;57.95;99111.75;6169939;23;19984;-93
2023/11/12 08:11:19;;;;;;;27.65;10.52;;;;;;;9.99;59.21;99121.16;6195998;23;20424;-93
2023/11/12 08:13:44;;;;;;;7.13;4.50;;;;;;;10.29;58.16;99135.63;6142261;23;20033;-94
2023/11/12 08:16:10;;;;;;;2.35;1.50;;;;;;;10.26;50.33;99115.47;6167614;23;20007;-93
2023/11/12 08:18:37;;;;;;;2.83;1.30;;;;;;;10.40;47.05;99107.66;6168162;23;19997;-94
2023/11/12 08:21:05;;;;;;;1.73;1.10;;;;;;;10.55;47.69;99120.28;6168409;23;19997;-93
2023/11/12 08:23:31;;;;;;;3.55;1.00;;;;;;;10.60;45.52;99105.97;6168132;23;20000;-95
2023/11/12 08:25:59;;;;;;;1.40;0.90;;;;;;;10.76;46.04;99104.84;6144374;23;20423;-94
2023/11/12 08:28:25;;;;;;;1.83;1.17;;;;;;;11.00;47.19;99137.34;6195254;23;19996;-94
2023/11/12 08:30:52;;;;;;;4.43;1.77;;;;;;;11.04;49.46;99124.91;6169733;23;20424;-93
2023/11/12 08:33:18;;;;;;;4.85;2.38;;;;;;;11.13;50.90;99119.75;6143781;23;20000;-94
2023/11/12 08:35:45;;;;;;;6.75;2.00;;;;;;;11.18;52.47;99124.28;6169856;23;20019;-93
2023/11/12 08:38:11;;;;;;;3.83;2.13;;;;;;;11.29;51.59;99110.50;6192374;23;20463;-94
2023/11/12 08:40:41;;;;;;;7.28;1.83;;;;;;;11.34;51.22;99112.34;6169443;23;20000;-96
2023/11/12 08:43:08;;;;;;;3.33;1.60;;;;;;;11.47;50.01;99110.91;6194688;23;20055;-96
2023/11/12 08:45:35;;;;;;;1.60;1.10;;;;;;;11.56;46.56;99138.06;6170430;23;20010;-96
2023/11/12 08:48:01;;;;;;;3.60;1.40;;;;;;;11.69;47.60;99119.38;6170126;23;20008;-94
2023/11/12 08:50:27;;;;;;;3.30;1.70;;;;;;;11.81;48.78;99123.59;6144639;23;20432;-93
2023/11/12 08:52:56;;;;;;;3.10;1.95;;;;;;;12.04;48.63;99133.69;6169051;23;20064;-93
2023/11/12 08:55:22;;;;;;;5.70;2.50;;;;;;;12.00;48.10;99102.16;6170581;23;20031;-93
2023/11/12 08:57:50;;;;;;;5.45;1.80;;;;;;;12.22;46.71;99117.84;6144629;23;20435;-93
2023/11/12 09:00:16;;;;;;;3.58;2.45;;;;;;;12.36;46.84;99110.69;6193224;23;20000;-93
2023/11/12 09:02:44;;;;;;;3.42;1.90;;;;;;;12.39;45.92;99107.41;6143306;23;20008;-92
2023/11/12 09:05:10;;;;;;;4.00;1.67;;;;;;;12.59;44.47;99116.38;6169736;23;20011;-92
2023/11/12 09:07:38;;;;;;;2.53;1.65;;;;;;;12.53;44.58;99107.53;6169019;23;20420;-94
2023/11/12 09:10:08;;;;;;;2.97;1.70;;;;;;;12.51;44.19;99134.84;6193856;23;20007;-94
2023/11/12 09:12:36;;;;;;;5.50;2.00;;;;;;;12.50;44.84;99117.00;6168293;23;20028;-93
2023/11/12 09:15:10;;;;;;;3.78;2.05;;;;;;;12.62;44.31;99110.41;6194065;23;20008;-91
2023/11/12 09:17:36;;;;;;;4.93;1.98;;;;;;;12.59;43.66;99103.66;6172221;23;20008;-94
2023/11/12 09:20:05;;;;;;;3.80;1.80;;;;;;;12.64;44.54;99122.53;6171287;23;20005;-93
2023/11/12 09:22:32;;;;;;;2.63;2.10;;;;;;;12.78;45.02;99119.13;6170713;23;20542;-92
2023/11/12 09:25:01;;;;;;;3.65;1.98;;;;;;;13.00;44.46;99121.28;6196138;23;20001;-94
2023/11/12 09:27:34;;;;;;;4.55;1.95;;;;;;;12.92;44.34;99114.63;6169655;23;20019;-94
2023/11/12 09:30:03;;;;;;;3.17;1.65;;;;;;;12.67;43.12;99113.03;6194740;23;20005;-94
2023/11/12 09:32:29;;;;;;;3.03;1.98;;;;;;;12.95;44.01;99127.56;6145022;23;20028;-94
2023/11/12 09:34:54;;;;;;;4.25;2.05;;;;;;;12.93;43.41;99110.84;6142607;23;20009;-94
2023/11/12 09:37:20;;;;;;;11.55;2.20;;;;;;;12.70;42.41;99107.88;6144390;23;20059;-94
2023/11/12 09:39:46;;;;;;;3.67;2.05;;;;;;;12.82;42.71;99125.56;6170330;23;20004;-95
2023/11/12 09:42:13;;;;;;;3.40;2.08;;;;;;;12.87;42.84;99107.38;6173938;23;20073;-96
2023/11/12 09:44:41;;;;;;;4.07;1.45;;;;;;;13.04;41.99;99130.41;6166276;23;20000;-95
2023/11/12 09:47:18;;;;;;;1.63;1.02;;;;;;;12.75;41.20;99115.09;6169889;23;20004;-94
2023/11/12 09:49:47;;;;;;;2.08;1.08;;;;;;;12.78;40.76;99086.69;6192945;23;20414;-94
2023/11/12 09:52:14;;;;;;;1.30;0.90;;;;;;;13.00;41.12;99094.25;6193335;23;20005;-93
2023/11/12 09:54:40;;;;;;;5.50;1.38;;;;;;;13.07;40.67;99092.81;6192900;23;20019;-96
2023/11/12 09:57:06;;;;;;;5.35;1.02;;;;;;;13.32;40.29;99116.00;6142628;23;20416;-93
2023/11/12 09:59:33;;;;;;;3.08;1.42;;;;;;;13.29;40.02;99110.38;6193964;23;20004;-95
2023/11/12 10:01:59;;;;;;;3.65;1.30;;;;;;;13.25;40.46;99112.00;6193852;23;20439;-94
2023/11/12 10:04:25;;;;;;;5.68;1.70;;;;;;;13.20;41.40;99101.25;6195421;23;19997;-94
2023/11/12 10:06:53;;;;;;;2.95;1.77;;;;;;;13.27;41.43;99099.81;6169722;23;19996;-95
2023/11/12 10:09:28;;;;;;;3.40;1.48;;;;;;;13.23;40.96;99092.56;6170367;23;20066;-95
2023/11/12 10:12:02;;;;;;;3.30;1.30;;;;;;;13.25;40.68;99090.38;6170860;23;20336;-95
2023/11/12 10:14:30;;;;;;;2.42;1.05;;;;;;;13.38;39.77;99097.78;6172867;23;20001;-95
2023/11/12 10:17:11;;;;;;;5.13;1.88;;;;;;;13.53;39.53;99096.75;6172176;23;20000;-95
2023/11/12 10:19:56;;;;;;;4.88;1.75;;;;;;;13.53;39.57;99086.75;6176402;23;19997;-96
2023/11/12 10:22:40;;;;;;;3.65;1.55;;;;;;;13.56;40.74;99089.94;6146915;23;20436;-94
2023/11/12 10:25:06;;;;;;;4.22;1.00;;;;;;;13.71;39.49;99106.72;6166797;23;20056;-95
2023/11/12 10:27:32;;;;;;;4.00;1.42;;;;;;;13.52;39.74;99087.81;6169964;23;20011;-94
2023/11/12 10:30:01;;;;;;;2.78;1.05;;;;;;;13.62;40.41;99094.19;6170178;23;20098;-94
2023/11/12 10:32:27;;;;;;;1.90;1.20;;;;;;;13.42;39.34;99082.56;6170720;23;20031;-95
2023/11/12 10:34:57;;;;;;;1.83;1.17;;;;;;;13.65;39.78;99096.28;6171733;23;19996;-95
2023/11/12 10:37:24;;;;;;;4.00;1.30;;;;;;;13.64;39.61;99091.97;6220338;23;20028;-94
2023/11/12 10:39:51;;;;;;;1.88;0.82;;;;;;;13.73;38.36;99096.41;6195330;23;20015;-94
2023/11/12 10:42:21;;;;;;;1.60;0.70;;;;;;;13.59;38.95;99108.28;6145078;23;20347;-95
2023/11/12 10:44:50;;;;;;;0.60;0.60;;;;;;;13.48;38.95;99081.41;6194815;23;20444;-95
2023/11/12 10:47:24;;;;;;;1.45;0.70;;;;;;;13.49;38.59;99090.34;6147731;23;20001;-96
2023/11/12 10:49:53;;;;;;;1.70;0.70;;;;;;;13.32;38.78;99078.13;6195930;23;20054;-95
2023/11/12 10:52:20;;;;;;;1.63;0.55;;;;;;;13.33;39.27;99066.22;6171030;23;20005;-94
2023/11/12 10:54:47;;;;;;;2.53;0.82;;;;;;;13.51;39.45;99080.81;6171387;23;20027;-94
2023/11/12 10:57:13;;;;;;;7.28;1.13;;;;;;;13.52;40.13;99070.78;6195337;23;20015;-96
2023/11/12 10:59:39;;;;;;;8.50;2.97;;;;;;;13.63;40.08;99087.66;6169305;23;19996;-95
2023/11/12 11:02:13;;;;;;;2.08;1.10;;;;;;;13.80;39.28;99095.22;6147754;23;20104;-94
2023/11/12 11:04:39;;;;;;;1.38;0.80;;;;;;;13.73;38.28;99085.59;6146394;23;20087;-96
2023/11/12 11:07:07;;;;;;;0.80;0.70;;;;;;;13.48;38.72;99078.69;6145250;23;20004;-95
2023/11/12 11:09:32;;;;;;;0.77;0.65;;;;;;;13.45;39.75;99094.72;6171791;23;20020;-94
2023/11/12 11:11:59;;;;;;;23.92;13.48;;;;;;;13.37;39.63;99089.97;6142526;23;20001;-92
2023/11/12 11:14:27;;;;;;;11.75;7.65;;;;;;;13.35;39.93;99087.56;6168855;23;20026;-93
2023/11/12 11:16:53;;;;;;;1.83;1.13;;;;;;;13.41;40.17;99102.63;6171165;23;20015;-93
2023/11/12 11:19:47;;;;;;;1.17;0.73;;;;;;;13.38;39.75;99096.97;6149628;23;20035;-95
2023/11/12 11:22:54;;;;;;;1.30;0.90;;;;;;;13.38;39.61;99094.28;6215671;23;20000;-95
2023/11/12 11:25:32;;;;;;;1.00;0.85;;;;;;;13.14;40.24;99085.13;6185075;23;20032;-96
2023/11/12 11:28:17;;;;;;;2.22;0.80;;;;;;;13.40;40.31;99119.13;6208926;23;20008;-96
2023/11/12 11:31:11;;;;;;;2.13;0.80;;;;;;;13.17;39.85;99088.34;6213868;23;20024;-96
2023/11/12 11:33:54;;;;;;;1.92;0.80;;;;;;;12.94;40.75;99082.69;6179372;23;20009;-96
2023/11/12 11:36:22;;;;;;;2.28;1.10;;;;;;;13.04;40.96;99092.56;6174093;23;20340;-94
2023/11/12 11:39:15;;;;;;;1.92;0.75;;;;;;;13.09;41.37;99106.84;6169315;23;20098;-95
2023/11/12 11:41:56;;;;;;;1.05;0.68;;;;;;;13.09;41.62;99116.81;6193557;23;20036;-95